createdAt,value
2023-04-15T00:01:13.195Z,8.79
2023-04-15T00:03:40.156Z,8.76
2023-04-15T00:06:07.568Z,8.73
2023-04-15T00:08:34.443Z,8.69
2023-04-15T00:11:03.287Z,8.68
2023-04-15T00:13:30.215Z,8.66
2023-04-15T00:15:57.345Z,8.64
2023-04-15T00:18:24.889Z,8.61
2023-04-15T00:20:52.454Z,8.60
2023-04-15T00:23:19.478Z,8.57
2023-04-15T00:25:46.866Z,8.55
2023-04-15T00:28:13.864Z,8.54
2023-04-15T00:30:40.704Z,8.52
2023-04-15T00:33:07.928Z,8.50
2023-04-15T00:35:35.795Z,8.48
2023-04-15T00:38:04.812Z,8.44
2023-04-15T00:40:31.629Z,8.43
2023-04-15T00:42:58.404Z,8.40
2023-04-15T00:45:26.490Z,8.38
2023-04-15T00:47:54.337Z,8.36
2023-04-15T00:50:21.214Z,8.34
2023-04-15T00:52:49.125Z,8.31
2023-04-15T00:55:16.164Z,8.30
2023-04-15T00:57:43.067Z,8.27
2023-04-15T01:00:11.800Z,8.25
2023-04-15T01:02:39.644Z,8.22
2023-04-15T01:05:08.365Z,8.19
2023-04-15T01:07:35.719Z,8.18
2023-04-15T01:10:04.438Z,8.15
2023-04-15T01:12:33.332Z,8.11
2023-04-15T01:15:00.675Z,8.11
2023-04-15T01:17:28.166Z,8.07
2023-04-15T01:19:57.984Z,8.04
2023-04-15T01:22:27.090Z,8.00
2023-04-15T01:25:10.789Z,7.95
2023-04-15T01:27:40.900Z,7.94
2023-04-15T01:30:09.223Z,7.92
2023-04-15T01:32:37.189Z,7.91
2023-04-15T01:35:04.977Z,7.90
2023-04-15T01:37:32.920Z,7.88
2023-04-15T01:40:00.199Z,7.87
2023-04-15T01:42:27.751Z,7.86
2023-04-15T01:44:54.939Z,7.83
2023-04-15T01:47:22.391Z,7.83
2023-04-15T01:49:49.350Z,7.80
2023-04-15T01:52:16.290Z,7.79
2023-04-15T01:54:43.277Z,7.79
2023-04-15T01:57:12.122Z,7.77
2023-04-15T01:59:38.999Z,7.78
2023-04-15T02:02:06.337Z,7.78
2023-04-15T02:04:34.467Z,7.78
2023-04-15T02:07:01.706Z,7.78
2023-04-15T02:09:29.180Z,7.78
2023-04-15T02:11:56.449Z,7.79
2023-04-15T02:14:24.688Z,7.81
2023-04-15T02:16:51.815Z,7.82
2023-04-15T02:19:18.856Z,7.83
2023-04-15T02:21:45.673Z,7.84
2023-04-15T02:24:12.527Z,7.83
2023-04-15T02:26:41.487Z,7.83
2023-04-15T02:29:08.406Z,7.82
2023-04-15T02:31:40.328Z,7.81
2023-04-15T02:34:07.349Z,7.82
2023-04-15T02:36:34.643Z,7.83
2023-04-15T02:39:02.176Z,7.82
2023-04-15T02:41:30.408Z,7.81
2023-04-15T02:43:58.038Z,7.81
2023-04-15T02:46:24.992Z,7.80
2023-04-15T02:48:53.286Z,7.78
2023-04-15T02:51:25.896Z,7.73
2023-04-15T02:53:52.732Z,7.71
2023-04-15T02:56:19.875Z,7.68
2023-04-15T02:58:50.454Z,7.66
2023-04-15T03:01:17.317Z,7.63
2023-04-15T03:03:44.473Z,7.61
2023-04-15T03:06:11.662Z,7.58
2023-04-15T03:08:38.500Z,7.55
2023-04-15T03:11:05.613Z,7.51
2023-04-15T03:13:33.846Z,7.49
2023-04-15T03:16:09.005Z,7.47
2023-04-15T03:18:36.203Z,7.44
2023-04-15T03:21:04.091Z,7.42
2023-04-15T03:23:34.670Z,7.40
2023-04-15T03:26:04.224Z,7.37
2023-04-15T03:28:32.891Z,7.35
2023-04-15T03:31:01.328Z,7.31
2023-04-15T03:33:29.563Z,7.29
2023-04-15T03:35:56.661Z,7.28
2023-04-15T03:38:23.569Z,7.26
2023-04-15T03:40:50.494Z,7.24
2023-04-15T03:43:17.327Z,7.22
2023-04-15T03:45:44.448Z,7.20
2023-04-15T03:48:17.671Z,7.18
2023-04-15T03:50:45.959Z,7.17
2023-04-15T03:53:12.862Z,7.15
2023-04-15T03:55:39.997Z,7.13
2023-04-15T03:58:06.984Z,7.13
2023-04-15T04:00:34.039Z,7.10
2023-04-15T04:03:01.087Z,7.09
2023-04-15T04:05:28.190Z,7.07
2023-04-15T04:07:55.341Z,7.08
2023-04-15T04:10:22.467Z,7.06
2023-04-15T04:12:49.713Z,7.07
2023-04-15T04:15:17.010Z,7.06
2023-04-15T04:17:43.841Z,7.06
2023-04-15T04:20:12.505Z,7.06
2023-04-15T04:22:40.510Z,7.04
2023-04-15T04:25:11.328Z,7.03
2023-04-15T04:27:38.396Z,7.03
2023-04-15T04:30:17.836Z,7.01
2023-04-15T04:32:54.997Z,7.03
2023-04-15T04:35:27.324Z,7.02
2023-04-15T04:37:59.119Z,7.01
2023-04-15T04:40:26.588Z,7.00
2023-04-15T04:42:54.666Z,7.00
2023-04-15T04:45:22.807Z,6.99
2023-04-15T04:47:49.858Z,7.00
2023-04-15T04:50:17.944Z,6.98
2023-04-15T04:52:44.807Z,6.98
2023-04-15T04:55:12.647Z,6.96
2023-04-15T04:57:39.778Z,6.95
2023-04-15T05:00:13.115Z,6.94
2023-04-15T05:02:42.403Z,6.93
2023-04-15T05:05:16.597Z,6.92
2023-04-15T05:07:44.023Z,6.93
2023-04-15T05:10:19.500Z,6.93
2023-04-15T05:12:50.613Z,6.94
2023-04-15T05:15:20.891Z,6.94
2023-04-15T05:17:48.473Z,6.95
2023-04-15T05:20:16.260Z,6.96
2023-04-15T05:22:47.564Z,6.96
2023-04-15T05:25:15.290Z,6.96
2023-04-15T05:27:42.253Z,6.97
2023-04-15T05:30:13.444Z,6.98
2023-04-15T05:32:41.998Z,6.98
2023-04-15T05:35:12.867Z,6.97
2023-04-15T05:37:40.862Z,6.99
2023-04-15T05:40:11.802Z,7.01
2023-04-15T05:42:41.917Z,7.03
2023-04-15T05:45:09.785Z,7.05
2023-04-15T05:47:37.780Z,7.07
2023-04-15T05:50:10.345Z,7.11
2023-04-15T05:52:38.154Z,7.14
2023-04-15T05:55:06.726Z,7.18
2023-04-15T05:57:37.607Z,7.22
2023-04-15T06:00:09.209Z,7.26
2023-04-15T06:02:39.393Z,7.30
2023-04-15T06:05:16.002Z,7.32
2023-04-15T06:07:44.063Z,7.36
2023-04-15T06:10:12.214Z,7.40
2023-04-15T06:12:39.745Z,7.45
2023-04-15T06:15:11.341Z,7.52
2023-04-15T06:17:38.521Z,7.56
2023-04-15T06:20:06.725Z,7.62
2023-04-15T06:22:34.004Z,7.68
2023-04-15T06:25:01.495Z,7.75
2023-04-15T06:27:29.037Z,7.83
2023-04-15T06:29:56.616Z,7.90
2023-04-15T06:32:24.574Z,7.99
2023-04-15T06:34:52.250Z,8.06
2023-04-15T06:37:22.669Z,8.14
2023-04-15T06:39:51.148Z,8.25
2023-04-15T06:42:18.155Z,8.34
2023-04-15T06:44:45.244Z,8.44
2023-04-15T06:47:15.433Z,8.54
2023-04-15T06:49:43.245Z,8.64
2023-04-15T06:52:11.304Z,8.74
2023-04-15T06:54:39.181Z,8.87
2023-04-15T06:57:07.884Z,9.00
2023-04-15T06:59:34.985Z,9.13
2023-04-15T07:02:02.168Z,9.24
2023-04-15T07:04:29.582Z,9.36
2023-04-15T07:06:57.856Z,9.50
2023-04-15T07:09:25.548Z,9.63
2023-04-15T07:12:24.413Z,9.75
2023-04-15T07:14:52.153Z,9.94
2023-04-15T07:17:19.059Z,10.10
2023-04-15T07:19:46.420Z,10.25
2023-04-15T07:22:13.601Z,10.41
2023-04-15T07:24:44.617Z,10.57
2023-04-15T07:27:12.112Z,10.76
2023-04-15T07:29:39.512Z,10.92
2023-04-15T07:32:07.689Z,11.09
2023-04-15T07:34:35.256Z,11.27
2023-04-15T07:37:02.621Z,11.44
2023-04-15T07:39:30.089Z,11.62
2023-04-15T07:41:57.130Z,11.80
2023-04-15T07:44:25.105Z,11.98
2023-04-15T07:46:52.757Z,12.17
2023-04-15T07:49:21.548Z,12.36
2023-04-15T07:51:50.429Z,12.54
2023-04-15T07:54:18.478Z,12.74
2023-04-15T07:56:46.377Z,12.92
2023-04-15T07:59:18.612Z,13.12
2023-04-15T08:01:45.617Z,13.33
2023-04-15T08:04:13.875Z,13.53
2023-04-15T08:06:40.991Z,13.71
2023-04-15T08:09:08.545Z,13.90
2023-04-15T08:11:36.756Z,14.07
2023-04-15T08:14:04.474Z,14.26
2023-04-15T08:16:33.546Z,14.43
2023-04-15T08:19:01.235Z,14.59
2023-04-15T08:21:35.561Z,14.75
2023-04-15T08:24:07.369Z,14.91
2023-04-15T08:26:34.383Z,15.09
2023-04-15T08:29:04.759Z,15.23
2023-04-15T08:31:32.710Z,15.35
2023-04-15T08:34:00.773Z,15.48
2023-04-15T08:36:29.123Z,15.58
2023-04-15T08:38:56.809Z,15.69
2023-04-15T08:41:36.109Z,15.76
2023-04-15T08:44:06.666Z,15.87
2023-04-15T08:46:37.160Z,15.99
2023-04-15T08:49:13.248Z,16.06
2023-04-15T08:51:46.878Z,16.14
2023-04-15T08:54:15.713Z,16.26
2023-04-15T08:56:43.453Z,16.37
2023-04-15T08:59:11.346Z,16.43
2023-04-15T09:01:41.487Z,16.49
2023-04-15T09:04:09.051Z,16.55
2023-04-15T09:06:36.390Z,16.60
2023-04-15T09:09:14.668Z,16.63
2023-04-15T09:11:43.307Z,16.70
2023-04-15T09:14:10.869Z,16.75
2023-04-15T09:17:01.453Z,16.74
2023-04-15T09:19:30.173Z,16.84
2023-04-15T09:22:06.465Z,16.95
2023-04-15T09:24:42.389Z,17.01
2023-04-15T09:27:11.460Z,17.13
2023-04-15T09:29:43.091Z,17.17
2023-04-15T09:32:18.336Z,17.29
2023-04-15T09:34:49.185Z,17.44
2023-04-15T09:37:31.607Z,17.57
2023-04-15T09:39:59.568Z,17.76
2023-04-15T09:42:30.453Z,17.89
2023-04-15T09:45:12.250Z,17.99
2023-04-15T09:47:40.849Z,18.13
2023-04-15T09:50:12.332Z,18.24
2023-04-15T09:52:46.863Z,18.32
2023-04-15T09:55:17.242Z,18.43
2023-04-15T09:57:47.495Z,18.53
2023-04-15T10:00:16.505Z,18.62
2023-04-15T10:02:44.657Z,18.70
2023-04-15T10:05:15.515Z,18.75
2023-04-15T10:07:42.957Z,18.81
2023-04-15T10:10:14.256Z,18.82
2023-04-15T10:12:43.370Z,18.86
2023-04-15T10:15:28.397Z,18.85
2023-04-15T10:18:01.353Z,18.88
2023-04-15T10:20:33.752Z,18.87
2023-04-15T10:23:03.012Z,18.90
2023-04-15T10:25:35.944Z,18.86
2023-04-15T10:28:03.691Z,18.91
2023-04-15T10:30:33.725Z,18.88
2023-04-15T10:33:05.310Z,18.85
2023-04-15T10:35:40.948Z,18.83
2023-04-15T10:38:43.520Z,18.78
2023-04-15T10:41:28.208Z,18.77
2023-04-15T10:44:07.025Z,18.71
2023-04-15T10:46:43.839Z,18.67
2023-04-15T10:49:17.417Z,18.63
2023-04-15T10:51:59.870Z,18.58
2023-04-15T10:54:28.657Z,18.56
2023-04-15T10:57:01.768Z,18.46
2023-04-15T11:00:00.596Z,18.35
2023-04-15T11:03:08.336Z,18.22
2023-04-15T11:05:56.297Z,18.17
2023-04-15T11:09:01.888Z,18.05
2023-04-15T11:12:08.999Z,17.95
2023-04-15T11:14:41.912Z,18.00
2023-04-15T11:17:09.559Z,18.04
2023-04-15T11:19:43.625Z,18.05
2023-04-15T11:22:11.841Z,18.06
2023-04-15T11:24:52.220Z,18.02
2023-04-15T11:27:23.951Z,18.05
2023-04-15T11:29:52.808Z,18.09
2023-04-15T11:32:23.559Z,18.10
2023-04-15T11:35:04.688Z,18.09
2023-04-15T11:37:32.485Z,18.12
2023-04-15T11:40:07.305Z,18.08
2023-04-15T11:42:48.729Z,18.10
2023-04-15T11:45:17.064Z,18.12
2023-04-15T11:47:53.647Z,18.11
2023-04-15T11:50:26.132Z,18.21
2023-04-15T11:53:01.367Z,18.27
2023-04-15T11:55:29.985Z,18.37
2023-04-15T11:58:14.456Z,18.39
2023-04-15T12:00:54.636Z,18.48
2023-04-15T12:03:42.596Z,18.52
2023-04-15T12:06:22.637Z,18.52
2023-04-15T12:08:56.112Z,18.45
2023-04-15T12:11:53.875Z,18.45
2023-04-15T12:14:33.865Z,18.42
2023-04-15T12:17:02.932Z,18.33
2023-04-15T12:19:43.224Z,18.36
2023-04-15T12:22:16.844Z,18.39
2023-04-15T12:24:48.126Z,18.42
2023-04-15T12:27:17.257Z,18.40
2023-04-15T12:29:45.389Z,18.37
2023-04-15T12:32:14.794Z,18.35
2023-04-15T12:34:58.636Z,18.33
2023-04-15T12:37:26.604Z,18.49
2023-04-15T12:39:56.020Z,18.59
2023-04-15T12:42:23.531Z,18.66
2023-04-15T12:44:51.441Z,18.70
2023-04-15T12:47:19.224Z,18.68
2023-04-15T12:49:49.715Z,18.64
2023-04-15T12:52:16.832Z,18.61
2023-04-15T12:54:44.885Z,18.57
2023-04-15T12:57:12.242Z,18.59
2023-04-15T12:59:43.200Z,18.62
2023-04-15T13:02:14.218Z,18.65
2023-04-15T13:04:42.018Z,18.64
2023-04-15T13:07:14.490Z,18.65
2023-04-15T13:09:44.841Z,18.60
2023-04-15T13:12:13.986Z,18.55
2023-04-15T13:14:41.398Z,18.51
2023-04-15T13:17:10.196Z,18.44
2023-04-15T13:19:37.190Z,18.36
2023-04-15T13:22:04.020Z,18.29
2023-04-15T13:24:31.026Z,18.24
2023-04-15T13:26:59.168Z,18.19
2023-04-15T13:29:26.489Z,18.17
2023-04-15T13:31:53.380Z,18.12
2023-04-15T13:34:20.212Z,18.08
2023-04-15T13:36:47.264Z,17.99
2023-04-15T13:39:14.139Z,17.86
2023-04-15T13:41:41.673Z,17.74
2023-04-15T13:44:09.537Z,17.60
2023-04-15T13:46:37.990Z,17.46
2023-04-15T13:49:04.879Z,17.32
2023-04-15T13:51:33.253Z,17.18
2023-04-15T13:54:07.254Z,17.05
2023-04-15T13:56:42.604Z,16.90
2023-04-15T13:59:10.208Z,16.79
2023-04-15T14:01:37.128Z,16.72
2023-04-15T14:04:05.420Z,16.65
2023-04-15T14:06:33.856Z,16.61
2023-04-15T14:09:00.892Z,16.58
2023-04-15T14:11:30.176Z,16.58
2023-04-15T14:14:06.975Z,16.56
2023-04-15T14:16:37.856Z,16.57
2023-04-15T14:19:18.899Z,16.55
2023-04-15T14:21:46.532Z,16.45
2023-04-15T14:24:15.661Z,16.50
2023-04-15T14:26:44.892Z,16.34
2023-04-15T14:29:13.205Z,16.36
2023-04-15T14:31:44.781Z,16.26
2023-04-15T14:34:32.086Z,16.21
2023-04-15T14:36:59.129Z,16.15
2023-04-15T14:39:29.083Z,16.09
2023-04-15T14:42:02.292Z,16.01
2023-04-15T14:44:39.474Z,15.95
2023-04-15T14:47:07.675Z,15.94
2023-04-15T14:49:37.541Z,15.87
2023-04-15T14:52:07.428Z,15.81
2023-04-15T14:54:36.395Z,15.68
2023-04-15T14:57:04.185Z,15.71
2023-04-15T14:59:32.217Z,15.68
2023-04-15T15:01:59.922Z,15.65
2023-04-15T15:04:33.749Z,15.64
2023-04-15T15:07:01.763Z,15.62
2023-04-15T15:09:30.419Z,15.58
2023-04-15T15:12:01.534Z,15.55
2023-04-15T15:14:28.692Z,15.56
2023-04-15T15:16:58.584Z,15.58
2023-04-15T15:19:29.156Z,15.63
2023-04-15T15:21:57.118Z,15.66
2023-04-15T15:24:24.550Z,15.69
2023-04-15T15:26:52.517Z,15.71
2023-04-15T15:29:22.204Z,15.71
2023-04-15T15:31:50.462Z,15.75
2023-04-15T15:34:20.903Z,15.75
2023-04-15T15:36:51.889Z,15.79
2023-04-15T15:39:19.108Z,15.83
2023-04-15T15:41:45.951Z,15.85
2023-04-15T15:44:13.369Z,15.86
2023-04-15T15:46:40.850Z,15.86
2023-04-15T15:49:12.889Z,15.82
2023-04-15T15:51:40.113Z,15.78
2023-04-15T15:54:07.238Z,15.72
2023-04-15T15:56:39.163Z,15.68
2023-04-15T15:59:07.962Z,15.64
2023-04-15T16:01:36.867Z,15.62
2023-04-15T16:04:12.135Z,15.57
2023-04-15T16:06:41.175Z,15.57
2023-04-15T16:09:08.184Z,15.53
2023-04-15T16:11:35.381Z,15.50
2023-04-15T16:14:03.609Z,15.45
2023-04-15T16:16:31.626Z,15.39
2023-04-15T16:18:59.069Z,15.35
2023-04-15T16:21:27.548Z,15.29
2023-04-15T16:23:55.181Z,15.22
2023-04-15T16:26:27.787Z,15.15
2023-04-15T16:28:56.452Z,15.09
2023-04-15T16:31:27.022Z,15.05
2023-04-15T16:33:54.354Z,14.99
2023-04-15T16:36:22.191Z,14.92
2023-04-15T16:38:53.560Z,14.87
2023-04-15T16:41:21.098Z,14.82
2023-04-15T16:43:54.488Z,14.75
2023-04-15T16:46:21.811Z,14.68
2023-04-15T16:48:53.413Z,14.58
2023-04-15T16:51:20.745Z,14.53
2023-04-15T16:53:52.783Z,14.41
2023-04-15T16:56:21.629Z,14.29
2023-04-15T16:58:48.849Z,14.17
2023-04-15T17:01:16.219Z,14.05
2023-04-15T17:03:44.086Z,13.94
2023-04-15T17:06:16.412Z,13.82
2023-04-15T17:08:44.942Z,13.75
2023-04-15T17:11:12.434Z,13.65
2023-04-15T17:13:39.612Z,13.56
2023-04-15T17:16:12.080Z,13.46
2023-04-15T17:18:38.989Z,13.40
2023-04-15T17:21:06.156Z,13.33
2023-04-15T17:23:40.064Z,13.24
2023-04-15T17:26:06.920Z,13.22
2023-04-15T17:28:34.385Z,13.18
2023-04-15T17:31:01.864Z,13.14
2023-04-15T17:33:56.354Z,13.13
2023-04-15T17:36:19.582Z,13.07
2023-04-15T17:38:47.020Z,13.02
2023-04-15T17:41:14.103Z,12.98
2023-04-15T17:43:41.378Z,12.92
2023-04-15T17:46:08.368Z,12.86
2023-04-15T17:48:35.344Z,12.79
2023-04-15T17:51:02.518Z,12.76
2023-04-15T17:53:29.439Z,12.71
2023-04-15T17:55:57.570Z,12.65
2023-04-15T17:58:24.468Z,12.62
2023-04-15T18:00:51.289Z,12.59
2023-04-15T18:03:18.176Z,12.56
2023-04-15T18:05:45.224Z,12.52
2023-04-15T18:08:12.076Z,12.49
2023-04-15T18:10:39.406Z,12.44
2023-04-15T18:13:06.448Z,12.41
2023-04-15T18:15:33.382Z,12.38
2023-04-15T18:18:00.936Z,12.34
2023-04-15T18:20:29.522Z,12.31
2023-04-15T18:22:57.009Z,12.30
2023-04-15T18:25:23.917Z,12.27
2023-04-15T18:27:50.869Z,12.25
2023-04-15T18:30:17.708Z,12.22
2023-04-15T18:32:44.729Z,12.19
2023-04-15T18:35:11.775Z,12.17
2023-04-15T18:37:38.918Z,12.15
2023-04-15T18:40:07.425Z,12.11
2023-04-15T18:42:34.207Z,12.10
2023-04-15T18:45:01.076Z,12.07
2023-04-15T18:47:28.178Z,12.04
2023-04-15T18:49:55.246Z,12.02
2023-04-15T18:52:22.093Z,11.98
2023-04-15T18:54:49.199Z,11.93
2023-04-15T18:57:23.539Z,11.90
2023-04-15T18:59:59.939Z,11.86
2023-04-15T19:02:27.067Z,11.83
2023-04-15T19:04:53.971Z,11.80
2023-04-15T19:07:20.848Z,11.81
2023-04-15T19:09:47.726Z,11.80
2023-04-15T19:12:14.535Z,11.79
2023-04-15T19:14:41.615Z,11.78
2023-04-15T19:17:08.418Z,11.76
2023-04-15T19:19:35.349Z,11.72
2023-04-15T19:22:03.448Z,11.72
2023-04-15T19:24:33.109Z,11.68
2023-04-15T19:27:01.380Z,11.68
2023-04-15T19:29:28.701Z,11.67
2023-04-15T19:31:55.996Z,11.63
2023-04-15T19:34:23.129Z,11.60
2023-04-15T19:36:50.044Z,11.57
2023-04-15T19:39:18.519Z,11.56
2023-04-15T19:41:45.827Z,11.55
2023-04-15T19:44:13.490Z,11.53
2023-04-15T19:46:43.527Z,11.50
2023-04-15T19:49:10.725Z,11.47
2023-04-15T19:51:37.572Z,11.47
2023-04-15T19:54:04.406Z,11.44
2023-04-15T19:56:32.921Z,11.45
2023-04-15T19:59:02.158Z,11.43
2023-04-15T20:01:29.142Z,11.45
2023-04-15T20:03:56.251Z,11.47
2023-04-15T20:06:23.262Z,11.46
2023-04-15T20:08:50.223Z,11.47
2023-04-15T20:11:17.014Z,11.44
2023-04-15T20:13:43.843Z,11.43
2023-04-15T20:16:11.677Z,11.43
2023-04-15T20:18:39.069Z,11.44
2023-04-15T20:21:05.993Z,11.47
2023-04-15T20:23:35.667Z,11.47
2023-04-15T20:26:02.481Z,11.48
2023-04-15T20:28:29.438Z,11.49
2023-04-15T20:30:56.336Z,11.49
2023-04-15T20:33:24.656Z,11.48
2023-04-15T20:35:51.847Z,11.48
2023-04-15T20:38:18.813Z,11.47
2023-04-15T20:40:45.723Z,11.48
2023-04-15T20:43:12.677Z,11.48
2023-04-15T20:45:39.581Z,11.48
2023-04-15T20:48:06.687Z,11.48
2023-04-15T20:50:33.633Z,11.47
2023-04-15T20:53:00.793Z,11.48
2023-04-15T20:55:28.988Z,11.48
2023-04-15T20:57:58.237Z,11.49
2023-04-15T21:00:25.222Z,11.48
2023-04-15T21:02:52.121Z,11.48
2023-04-15T21:05:19.015Z,11.49
2023-04-15T21:07:45.811Z,11.49
2023-04-15T21:10:12.627Z,11.48
2023-04-15T21:12:41.001Z,11.48
2023-04-15T21:15:08.913Z,11.44
2023-04-15T21:17:35.772Z,11.45
2023-04-15T21:20:05.221Z,11.45
2023-04-15T21:22:32.350Z,11.44
2023-04-15T21:24:59.210Z,11.44
2023-04-15T21:27:26.183Z,11.43
2023-04-15T21:29:53.048Z,11.42
2023-04-15T21:32:19.949Z,11.41
2023-04-15T21:34:46.788Z,11.40
2023-04-15T21:37:13.662Z,11.39
2023-04-15T21:39:40.581Z,11.39
2023-04-15T21:42:07.412Z,11.39
2023-04-15T21:44:34.208Z,11.40
2023-04-15T21:47:01.118Z,11.40
2023-04-15T21:49:27.974Z,11.41
2023-04-15T21:51:54.807Z,11.44
2023-04-15T21:54:21.646Z,11.43
2023-04-15T21:56:49.678Z,11.43
2023-04-15T21:59:16.589Z,11.40
2023-04-15T22:01:43.537Z,11.37
2023-04-15T22:04:11.183Z,11.35
2023-04-15T22:06:38.610Z,11.34
2023-04-15T22:09:05.748Z,11.33
2023-04-15T22:11:32.920Z,11.33
2023-04-15T22:14:01.077Z,11.33
2023-04-15T22:16:28.489Z,11.32
2023-04-15T22:18:56.102Z,11.31
2023-04-15T22:21:23.443Z,11.31
2023-04-15T22:23:51.032Z,11.30
2023-04-15T22:26:17.837Z,11.29
2023-04-15T22:28:45.239Z,11.28
2023-04-15T22:31:12.189Z,11.29
2023-04-15T22:33:39.168Z,11.29
2023-04-15T22:36:06.299Z,11.28
2023-04-15T22:38:33.775Z,11.29
2023-04-15T22:41:00.558Z,11.29
2023-04-15T22:43:27.721Z,11.30
2023-04-15T22:45:54.909Z,11.33
2023-04-15T22:48:22.129Z,11.34
2023-04-15T22:50:49.393Z,11.35
2023-04-15T22:53:20.016Z,11.37
2023-04-15T22:55:48.462Z,11.38
2023-04-15T22:58:16.940Z,11.39
2023-04-15T23:00:44.587Z,11.40
2023-04-15T23:03:12.425Z,11.40
2023-04-15T23:05:41.045Z,11.41
2023-04-15T23:08:08.099Z,11.41
2023-04-15T23:10:34.876Z,11.40
2023-04-15T23:13:01.802Z,11.39
2023-04-15T23:15:28.819Z,11.40
2023-04-15T23:17:55.688Z,11.40
2023-04-15T23:20:22.583Z,11.41
2023-04-15T23:22:49.564Z,11.43
2023-04-15T23:25:16.582Z,11.44
2023-04-15T23:27:43.491Z,11.43
2023-04-15T23:30:11.812Z,11.42
2023-04-15T23:32:38.866Z,11.42
2023-04-15T23:35:06.129Z,11.41
2023-04-15T23:37:32.972Z,11.43
2023-04-15T23:39:59.833Z,11.42
2023-04-15T23:42:27.009Z,11.41
2023-04-15T23:44:53.916Z,11.40
2023-04-15T23:47:21.659Z,11.40
2023-04-15T23:49:48.582Z,11.41
2023-04-15T23:52:16.523Z,11.42
2023-04-15T23:54:43.317Z,11.42
2023-04-15T23:57:12.693Z,11.42
2023-04-15T23:59:39.882Z,11.43
